createdAt,value
2023-09-17T04:01:30.574Z,83.49
2023-09-17T04:03:58.049Z,83.65
2023-09-17T04:06:25.683Z,83.68
2023-09-17T04:08:52.623Z,83.70
2023-09-17T04:11:20.081Z,83.52
2023-09-17T04:13:47.480Z,83.47
2023-09-17T04:16:17.116Z,83.46
2023-09-17T04:18:44.394Z,83.38
2023-09-17T04:21:11.253Z,83.35
2023-09-17T04:23:38.077Z,83.32
2023-09-17T04:26:05.027Z,83.42
2023-09-17T04:28:32.154Z,83.56
2023-09-17T04:30:59.213Z,83.08
2023-09-17T04:33:26.428Z,83.03
2023-09-17T04:35:57.942Z,83.13
2023-09-17T04:38:25.184Z,83.23
2023-09-17T04:40:52.169Z,83.83
2023-09-17T04:43:20.981Z,84.09
2023-09-17T04:45:49.152Z,84.31
2023-09-17T04:48:31.612Z,84.08
2023-09-17T04:50:58.683Z,84.10
2023-09-17T04:53:26.006Z,84.22
2023-09-17T04:55:55.125Z,84.30
2023-09-17T04:58:26.299Z,84.49
2023-09-17T05:00:56.490Z,84.24
2023-09-17T05:03:23.863Z,84.54
2023-09-17T05:05:51.789Z,84.30
2023-09-17T05:08:19.176Z,84.40
2023-09-17T05:10:46.698Z,84.48
2023-09-17T05:13:13.644Z,84.43
2023-09-17T05:15:41.590Z,84.48
2023-09-17T05:18:12.156Z,84.82
2023-09-17T05:20:45.075Z,84.98
2023-09-17T05:23:13.155Z,85.16
2023-09-17T05:25:40.382Z,85.31
2023-09-17T05:28:08.200Z,85.35
2023-09-17T05:30:35.685Z,85.32
2023-09-17T05:33:04.964Z,85.05
2023-09-17T05:35:33.339Z,85.23
2023-09-17T05:38:00.956Z,85.35
2023-09-17T05:40:28.139Z,85.38
2023-09-17T05:43:00.047Z,85.34
2023-09-17T05:45:27.711Z,85.28
2023-09-17T05:47:55.313Z,85.15
2023-09-17T05:50:23.753Z,85.06
2023-09-17T05:52:51.087Z,85.07
2023-09-17T05:55:18.367Z,84.92
2023-09-17T05:57:47.048Z,85.01
2023-09-17T06:00:14.700Z,84.83
2023-09-17T06:02:43.309Z,84.92
2023-09-17T06:05:12.202Z,84.85
2023-09-17T06:07:39.207Z,84.63
2023-09-17T06:10:07.390Z,84.65
2023-09-17T06:12:34.543Z,84.53
2023-09-17T06:15:03.343Z,84.35
2023-09-17T06:17:30.330Z,84.40
2023-09-17T06:19:57.486Z,84.22
2023-09-17T06:22:26.103Z,84.17
2023-09-17T06:24:56.850Z,83.98
2023-09-17T06:27:24.076Z,83.33
2023-09-17T06:29:51.492Z,83.06
2023-09-17T06:32:20.472Z,82.92
2023-09-17T06:34:48.145Z,82.67
2023-09-17T06:37:16.280Z,82.14
2023-09-17T06:39:43.849Z,81.87
2023-09-17T06:42:12.244Z,81.41
2023-09-17T06:44:40.508Z,81.02
2023-09-17T06:47:08.964Z,80.52
2023-09-17T06:49:36.365Z,80.27
2023-09-17T06:52:04.104Z,79.85
2023-09-17T06:54:31.670Z,79.38
2023-09-17T06:56:58.951Z,78.99
2023-09-17T06:59:27.891Z,78.71
2023-09-17T07:02:10.423Z,78.49
2023-09-17T07:04:38.547Z,78.26
2023-09-17T07:07:07.622Z,77.83
2023-09-17T07:09:36.778Z,77.41
2023-09-17T07:12:05.502Z,77.01
2023-09-17T07:14:34.110Z,76.81
2023-09-17T07:17:02.588Z,76.55
2023-09-17T07:19:35.455Z,76.11
2023-09-17T07:22:13.150Z,75.86
2023-09-17T07:24:42.922Z,75.29
2023-09-17T07:27:11.420Z,74.94
2023-09-17T07:29:38.971Z,74.62
2023-09-17T07:32:08.045Z,74.38
2023-09-17T07:34:37.052Z,73.92
2023-09-17T07:37:05.542Z,73.54
2023-09-17T07:39:32.933Z,73.03
2023-09-17T07:42:00.236Z,72.65
2023-09-17T07:44:27.579Z,72.29
2023-09-17T07:46:55.868Z,72.19
2023-09-17T07:49:27.852Z,71.98
2023-09-17T07:51:57.444Z,71.75
2023-09-17T07:54:25.300Z,71.39
2023-09-17T07:56:53.174Z,71.04
2023-09-17T07:59:20.441Z,70.70
2023-09-17T08:01:51.205Z,70.05
2023-09-17T08:04:18.795Z,69.75
2023-09-17T08:06:47.823Z,69.65
2023-09-17T08:09:16.086Z,69.35
2023-09-17T08:11:44.470Z,69.10
2023-09-17T08:14:12.165Z,68.82
2023-09-17T08:16:40.267Z,68.24
2023-09-17T08:19:08.931Z,68.03
2023-09-17T08:21:36.955Z,67.68
2023-09-17T08:24:06.629Z,67.43
2023-09-17T08:26:35.054Z,66.97
2023-09-17T08:29:06.273Z,66.77
2023-09-17T08:31:35.514Z,66.25
2023-09-17T08:34:04.298Z,65.79
2023-09-17T08:36:33.266Z,65.36
2023-09-17T08:39:00.316Z,65.04
2023-09-17T08:41:28.596Z,65.05
2023-09-17T08:43:56.321Z,64.68
2023-09-17T08:46:27.477Z,64.18
2023-09-17T08:48:55.704Z,63.78
2023-09-17T08:51:25.407Z,63.53
2023-09-17T08:54:18.376Z,63.11
2023-09-17T08:56:47.132Z,63.06
2023-09-17T08:59:22.986Z,62.36
2023-09-17T09:01:52.593Z,62.41
2023-09-17T09:04:23.494Z,62.18
2023-09-17T09:06:52.789Z,62.17
2023-09-17T09:09:24.530Z,61.73
2023-09-17T09:11:53.204Z,61.85
2023-09-17T09:14:21.866Z,61.24
2023-09-17T09:16:56.879Z,60.50
2023-09-17T09:19:24.983Z,60.06
2023-09-17T09:21:56.258Z,59.92
2023-09-17T09:24:35.693Z,59.54
2023-09-17T09:27:06.527Z,59.01
2023-09-17T09:29:36.850Z,58.16
2023-09-17T09:32:05.630Z,57.58
2023-09-17T09:34:33.101Z,57.75
2023-09-17T09:37:04.881Z,57.89
2023-09-17T09:39:32.888Z,57.24
2023-09-17T09:42:00.721Z,57.37
2023-09-17T09:44:31.173Z,57.15
2023-09-17T09:47:00.066Z,56.12
2023-09-17T09:49:27.918Z,56.11
2023-09-17T09:51:59.740Z,55.19
2023-09-17T09:54:26.632Z,55.26
2023-09-17T09:56:53.623Z,55.47
2023-09-17T09:59:21.057Z,56.25
2023-09-17T10:01:48.460Z,56.09
2023-09-17T10:04:15.899Z,54.68
2023-09-17T10:06:43.566Z,55.27
2023-09-17T10:09:11.634Z,54.98
2023-09-17T10:11:39.464Z,54.70
2023-09-17T10:14:07.314Z,54.54
2023-09-17T10:16:38.874Z,55.15
2023-09-17T10:19:09.223Z,55.07
2023-09-17T10:21:39.091Z,54.31
2023-09-17T10:24:09.311Z,53.87
2023-09-17T10:26:43.058Z,54.02
2023-09-17T10:29:12.265Z,54.28
2023-09-17T10:31:47.141Z,53.97
2023-09-17T10:34:20.028Z,53.97
2023-09-17T10:36:51.173Z,53.41
2023-09-17T10:39:20.541Z,53.82
2023-09-17T10:41:50.745Z,53.79
2023-09-17T10:44:20.992Z,53.64
2023-09-17T10:46:51.384Z,53.88
2023-09-17T10:49:26.754Z,54.10
2023-09-17T10:51:59.193Z,54.15
2023-09-17T10:54:30.986Z,53.90
2023-09-17T10:57:07.202Z,53.54
2023-09-17T10:59:39.808Z,53.02
2023-09-17T11:02:16.972Z,52.94
2023-09-17T11:04:46.578Z,52.33
2023-09-17T11:07:21.322Z,52.47
2023-09-17T11:09:51.878Z,52.64
2023-09-17T11:12:24.990Z,52.34
2023-09-17T11:15:00.199Z,52.10
2023-09-17T11:17:37.483Z,50.92
2023-09-17T11:20:17.440Z,51.27
2023-09-17T11:22:57.208Z,51.27
2023-09-17T11:25:43.923Z,50.59
2023-09-17T11:28:18.103Z,51.44
2023-09-17T11:31:02.359Z,51.41
2023-09-17T11:33:37.780Z,51.42
2023-09-17T11:36:08.639Z,50.68
2023-09-17T11:38:36.324Z,50.44
2023-09-17T11:41:38.310Z,50.29
2023-09-17T11:44:12.382Z,50.96
2023-09-17T11:46:47.050Z,50.58
2023-09-17T11:49:19.624Z,50.63
2023-09-17T11:51:58.767Z,50.32
2023-09-17T11:54:39.548Z,49.96
2023-09-17T11:57:08.902Z,48.25
2023-09-17T11:59:40.260Z,48.86
2023-09-17T12:02:09.516Z,48.27
2023-09-17T12:04:42.395Z,48.61
2023-09-17T12:07:14.272Z,48.68
2023-09-17T12:10:04.004Z,49.18
2023-09-17T12:12:36.113Z,50.08
2023-09-17T12:15:14.408Z,50.76
2023-09-17T12:17:45.845Z,49.79
2023-09-17T12:21:02.550Z,49.32
2023-09-17T12:24:07.147Z,49.45
2023-09-17T12:27:25.920Z,49.42
2023-09-17T12:29:57.377Z,48.60
2023-09-17T12:32:29.612Z,48.05
2023-09-17T12:34:59.578Z,48.70
2023-09-17T12:37:28.715Z,48.61
2023-09-17T12:39:57.277Z,48.08
2023-09-17T12:42:25.768Z,47.95
2023-09-17T12:44:55.107Z,46.97
2023-09-17T12:47:25.627Z,47.25
2023-09-17T12:49:56.452Z,48.00
2023-09-17T12:52:25.058Z,46.91
2023-09-17T12:54:54.330Z,46.87
2023-09-17T12:57:23.415Z,46.19
2023-09-17T12:59:51.837Z,45.84
2023-09-17T13:02:29.494Z,45.33
2023-09-17T13:04:57.925Z,45.72
2023-09-17T13:07:30.900Z,45.17
2023-09-17T13:09:59.723Z,45.32
2023-09-17T13:12:28.390Z,44.84
2023-09-17T13:14:56.533Z,45.42
2023-09-17T13:17:27.037Z,46.01
2023-09-17T13:19:56.984Z,44.75
2023-09-17T13:22:24.472Z,44.20
2023-09-17T13:24:51.817Z,44.06
2023-09-17T13:27:20.563Z,45.41
2023-09-17T13:29:54.324Z,44.90
2023-09-17T13:32:22.023Z,44.75
2023-09-17T13:34:51.034Z,44.48
2023-09-17T13:37:19.149Z,43.75
2023-09-17T13:39:53.097Z,44.29
2023-09-17T13:42:21.988Z,44.84
2023-09-17T13:44:50.991Z,44.93
2023-09-17T13:47:19.548Z,44.16
2023-09-17T13:49:48.206Z,43.79
2023-09-17T13:52:16.965Z,43.87
2023-09-17T13:54:44.945Z,43.73
2023-09-17T13:57:13.357Z,44.33
2023-09-17T13:59:41.840Z,44.01
2023-09-17T14:02:10.465Z,43.47
2023-09-17T14:04:39.121Z,43.29
2023-09-17T14:07:07.386Z,43.10
2023-09-17T14:09:35.292Z,44.29
2023-09-17T14:12:02.653Z,44.11
2023-09-17T14:14:29.919Z,44.07
2023-09-17T14:16:57.909Z,43.85
2023-09-17T14:19:26.198Z,43.35
2023-09-17T14:21:53.984Z,43.07
2023-09-17T14:24:21.681Z,43.66
2023-09-17T14:26:51.636Z,43.81
2023-09-17T14:29:23.366Z,43.24
2023-09-17T14:31:52.233Z,43.16
2023-09-17T14:34:20.742Z,43.63
2023-09-17T14:36:48.602Z,43.96
2023-09-17T14:39:16.678Z,43.93
2023-09-17T14:41:44.973Z,43.99
2023-09-17T14:44:13.045Z,43.96
2023-09-17T14:46:44.796Z,44.20
2023-09-17T14:49:12.543Z,44.37
2023-09-17T14:51:39.998Z,43.85
2023-09-17T14:54:11.737Z,44.18
2023-09-17T14:56:39.594Z,44.28
2023-09-17T14:59:06.564Z,44.49
2023-09-17T15:01:58.566Z,44.40
2023-09-17T15:04:22.366Z,44.58
2023-09-17T15:06:51.395Z,44.40
2023-09-17T15:09:20.445Z,44.52
2023-09-17T15:11:49.480Z,44.22
2023-09-17T15:14:20.076Z,44.45
2023-09-17T15:16:51.328Z,44.39
2023-09-17T15:19:21.160Z,44.62
2023-09-17T15:21:49.983Z,44.82
2023-09-17T15:24:20.548Z,44.92
2023-09-17T15:26:50.115Z,44.95
2023-09-17T15:29:17.787Z,44.77
2023-09-17T15:31:53.077Z,44.89
2023-09-17T15:34:29.214Z,45.22
2023-09-17T15:37:07.684Z,45.38
2023-09-17T15:39:36.824Z,45.24
2023-09-17T15:42:08.563Z,45.28
2023-09-17T15:44:38.276Z,45.45
2023-09-17T15:47:06.162Z,45.78
2023-09-17T15:49:33.381Z,45.97
2023-09-17T15:52:02.045Z,45.94
2023-09-17T15:54:31.403Z,46.08
2023-09-17T15:56:59.030Z,46.21
2023-09-17T15:59:27.304Z,46.24
2023-09-17T16:01:55.629Z,46.57
2023-09-17T16:04:24.449Z,46.80
2023-09-17T16:06:52.136Z,47.11
2023-09-17T16:09:20.750Z,47.35
2023-09-17T16:11:48.397Z,47.77
2023-09-17T16:14:16.093Z,48.01
2023-09-17T16:16:43.784Z,48.37
2023-09-17T16:19:13.830Z,48.70
2023-09-17T16:21:42.549Z,48.93
2023-09-17T16:24:12.153Z,49.10
2023-09-17T16:26:41.732Z,49.41
2023-09-17T16:29:11.964Z,49.63
2023-09-17T16:31:42.606Z,49.80
2023-09-17T16:34:12.556Z,49.73
2023-09-17T16:36:46.978Z,50.09
2023-09-17T16:39:15.924Z,50.34
2023-09-17T16:41:43.885Z,50.77
2023-09-17T16:44:11.062Z,51.06
2023-09-17T16:46:39.260Z,51.39
2023-09-17T16:49:07.715Z,51.67
2023-09-17T16:51:42.240Z,51.89
2023-09-17T16:54:10.407Z,52.01
2023-09-17T16:56:40.512Z,52.26
2023-09-17T16:59:09.164Z,52.74
2023-09-17T17:01:36.629Z,53.99
2023-09-17T17:04:04.444Z,54.69
2023-09-17T17:06:32.443Z,54.75
2023-09-17T17:09:00.053Z,55.24
2023-09-17T17:11:27.301Z,55.24
2023-09-17T17:13:55.727Z,55.83
2023-09-17T17:16:24.343Z,56.72
2023-09-17T17:18:51.924Z,57.12
2023-09-17T17:21:19.646Z,57.71
2023-09-17T17:23:51.685Z,58.38
2023-09-17T17:26:20.644Z,58.66
2023-09-17T17:28:48.668Z,59.12
2023-09-17T17:31:16.815Z,59.42
2023-09-17T17:33:45.369Z,59.98
2023-09-17T17:36:13.748Z,59.93
2023-09-17T17:38:43.035Z,60.22
2023-09-17T17:41:10.840Z,60.38
2023-09-17T17:43:39.925Z,60.62
2023-09-17T17:46:07.996Z,60.89
2023-09-17T17:48:37.189Z,61.31
2023-09-17T17:51:07.635Z,61.78
2023-09-17T17:53:36.943Z,61.97
2023-09-17T17:56:07.649Z,62.03
2023-09-17T17:58:36.271Z,62.09
2023-09-17T18:01:05.994Z,62.42
2023-09-17T18:03:34.298Z,62.56
2023-09-17T18:06:03.963Z,62.88
2023-09-17T18:08:32.717Z,63.33
2023-09-17T18:11:01.958Z,63.60
2023-09-17T18:13:37.580Z,63.70
2023-09-17T18:16:09.159Z,63.58
2023-09-17T18:18:38.007Z,64.00
2023-09-17T18:21:08.920Z,64.66
2023-09-17T18:23:39.189Z,65.19
2023-09-17T18:26:07.885Z,65.76
2023-09-17T18:28:35.513Z,66.07
2023-09-17T18:31:03.335Z,66.35
2023-09-17T18:33:33.878Z,66.42
2023-09-17T18:36:03.013Z,66.13
2023-09-17T18:38:31.000Z,66.04
2023-09-17T18:40:58.772Z,66.60
2023-09-17T18:43:27.587Z,67.09
2023-09-17T18:45:56.586Z,67.38
2023-09-17T18:48:28.397Z,67.52
2023-09-17T18:50:57.101Z,67.55
2023-09-17T18:53:25.639Z,67.79
2023-09-17T18:55:55.002Z,68.04
2023-09-17T18:58:23.634Z,68.18
2023-09-17T19:00:51.604Z,68.27
2023-09-17T19:03:21.930Z,68.48
2023-09-17T19:05:50.650Z,68.47
2023-09-17T19:08:19.182Z,68.53
2023-09-17T19:10:48.833Z,69.04
2023-09-17T19:13:18.142Z,69.55
2023-09-17T19:15:46.937Z,69.69
2023-09-17T19:18:17.894Z,70.01
2023-09-17T19:20:47.407Z,70.28
2023-09-17T19:23:16.277Z,70.59
2023-09-17T19:25:45.037Z,70.80
2023-09-17T19:28:13.202Z,70.95
2023-09-17T19:30:40.961Z,71.14
2023-09-17T19:33:09.114Z,71.23
2023-09-17T19:35:37.398Z,71.06
2023-09-17T19:38:06.111Z,70.88
2023-09-17T19:40:33.561Z,71.20
2023-09-17T19:43:01.426Z,71.01
2023-09-17T19:45:29.256Z,71.65
2023-09-17T19:47:56.904Z,71.82
2023-09-17T19:50:25.069Z,71.97
2023-09-17T19:52:56.323Z,72.09
2023-09-17T19:55:26.968Z,72.04
2023-09-17T19:57:55.104Z,72.04
2023-09-17T20:00:23.908Z,72.26
2023-09-17T20:02:53.336Z,72.44
2023-09-17T20:05:21.931Z,72.57
2023-09-17T20:07:51.305Z,72.63
2023-09-17T20:10:21.734Z,72.83
2023-09-17T20:12:50.187Z,73.32
2023-09-17T20:15:18.856Z,73.48
2023-09-17T20:17:47.254Z,73.54
2023-09-17T20:20:15.976Z,73.66
2023-09-17T20:22:46.238Z,73.70
2023-09-17T20:25:16.407Z,73.90
2023-09-17T20:27:54.121Z,74.24
2023-09-17T20:30:21.626Z,74.28
2023-09-17T20:32:49.400Z,74.29
2023-09-17T20:35:17.947Z,74.39
2023-09-17T20:37:45.924Z,74.45
2023-09-17T20:40:13.408Z,74.48
2023-09-17T20:42:41.910Z,74.58
2023-09-17T20:45:11.520Z,74.56
2023-09-17T20:47:39.119Z,74.62
2023-09-17T20:50:08.324Z,74.67
2023-09-17T20:52:37.555Z,74.79
2023-09-17T20:55:06.351Z,75.04
2023-09-17T20:57:33.905Z,75.13
2023-09-17T21:00:05.759Z,75.42
2023-09-17T21:02:33.620Z,75.62
2023-09-17T21:05:02.584Z,75.72
2023-09-17T21:07:29.869Z,75.67
2023-09-17T21:09:58.991Z,75.90
2023-09-17T21:12:28.570Z,75.98
2023-09-17T21:14:56.260Z,75.97
2023-09-17T21:17:23.429Z,75.91
2023-09-17T21:19:51.164Z,75.99
2023-09-17T21:22:18.195Z,76.05
2023-09-17T21:24:45.960Z,76.03
2023-09-17T21:27:13.319Z,76.08
2023-09-17T21:29:40.573Z,76.03
2023-09-17T21:32:07.453Z,76.45
2023-09-17T21:34:34.424Z,76.59
2023-09-17T21:37:02.736Z,76.58
2023-09-17T21:39:31.111Z,76.78
2023-09-17T21:41:58.671Z,77.00
2023-09-17T21:44:25.566Z,77.37
2023-09-17T21:46:55.977Z,77.70
2023-09-17T21:49:23.489Z,77.86
2023-09-17T21:51:50.551Z,78.17
2023-09-17T21:54:17.987Z,78.16
2023-09-17T21:56:50.491Z,78.05
2023-09-17T21:59:17.689Z,78.18
2023-09-17T22:01:48.015Z,78.36
2023-09-17T22:04:15.710Z,78.00
2023-09-17T22:06:43.070Z,77.89
2023-09-17T22:09:10.632Z,78.00
2023-09-17T22:11:37.785Z,77.95
2023-09-17T22:14:05.697Z,78.32
2023-09-17T22:16:36.163Z,78.80
2023-09-17T22:19:03.847Z,78.89
2023-09-17T22:21:30.786Z,79.08
2023-09-17T22:23:57.742Z,79.36
2023-09-17T22:26:24.817Z,79.62
2023-09-17T22:28:52.242Z,79.63
2023-09-17T22:31:21.904Z,79.77
2023-09-17T22:33:50.828Z,79.75
2023-09-17T22:36:17.786Z,79.57
2023-09-17T22:38:46.668Z,79.21
2023-09-17T22:41:20.801Z,79.04
2023-09-17T22:43:49.986Z,79.44
2023-09-17T22:46:18.722Z,79.82
2023-09-17T22:48:50.603Z,80.03
2023-09-17T22:51:19.630Z,80.43
2023-09-17T22:53:47.793Z,80.53
2023-09-17T22:56:15.045Z,80.63
2023-09-17T22:58:42.106Z,80.64
